Time,TemperatureF,DewpointF,PressureIn,WindDirection,WindDirectionDegrees,WindSpeedMPH,WindSpeedGustMPH,Humidity,HourlyPrecipIn,Conditions,Clouds,dailyrainin,SoftwareType,DateUTC
2013-02-19 06:00:00,23.0,14.0,29.74,West,270,1.1,1.1,68,0.00,,,0.00,WUHU216HW,2013-02-19 11:00:00,
2013-02-19 06:05:00,23.2,14.2,29.74,West,270,1.1,1.8,68,0.00,,,0.00,WUHU216HW,2013-02-19 11:05:00,
2013-02-19 06:10:00,23.4,14.4,29.74,West,270,1.6,1.8,68,0.00,,,0.00,WUHU216HW,2013-02-19 11:10:00,
2013-02-19 06:15:00,23.4,14.4,29.74,West,270,0.9,1.6,68,0.00,,,0.00,WUHU216HW,2013-02-19 11:15:00,
2013-02-19 06:20:00,23.4,14.4,29.74,West,270,0.4,1.6,68,0.00,,,0.00,WUHU216HW,2013-02-19 11:20:00,
2013-02-19 06:25:00,23.0,14.0,29.73,West,270,0.4,0.7,68,0.00,,,0.00,WUHU216HW,2013-02-19 11:25:00,
2013-02-19 06:30:00,22.7,13.7,29.73,West,270,0.5,0.7,68,0.00,,,0.00,WUHU216HW,2013-02-19 11:30:00,
2013-02-19 06:35:00,22.5,13.5,29.73,West,270,0.0,0.7,68,0.00,,,0.00,WUHU216HW,2013-02-19 11:35:00,
2013-02-19 06:40:00,22.1,13.1,29.73,West,270,0.0,0.4,68,0.00,,,0.00,WUHU216HW,2013-02-19 11:40:00,
2013-02-19 06:45:00,22.0,12.6,29.73,West,270,0.4,0.7,67,0.00,,,0.00,WUHU216HW,2013-02-19 11:45:00,
2013-02-19 06:50:00,21.8,12.4,29.72,West,270,0.4,0.7,67,0.00,,,0.00,WUHU216HW,2013-02-19 11:50:00,
2013-02-19 06:55:00,21.6,12.6,29.72,West,270,0.0,0.4,68,0.00,,,0.00,WUHU216HW,2013-02-19 11:55:00,
2013-02-19 07:00:00,21.6,12.6,29.72,West,270,0.0,0.4,68,0.00,,,0.00,WUHU216HW,2013-02-19 12:00:00,
2013-02-19 07:05:00,21.6,13.0,29.72,West,270,0.7,0.7,69,0.00,,,0.00,WUHU216HW,2013-02-19 12:05:00,
2013-02-19 07:10:00,22.0,13.3,29.72,West,270,1.3,1.6,69,0.00,,,0.00,WUHU216HW,2013-02-19 12:10:00,
2013-02-19 07:15:00,22.5,13.9,29.73,West,270,0.9,1.6,69,0.00,,,0.00,WUHU216HW,2013-02-19 12:15:00,
2013-02-19 07:20:00,22.9,14.6,29.73,West,270,0.9,1.1,70,0.00,,,0.00,WUHU216HW,2013-02-19 12:20:00,
2013-02-19 07:25:00,23.4,15.1,29.73,West,270,1.1,1.3,70,0.00,,,0.00,WUHU216HW,2013-02-19 12:25:00,
2013-02-19 07:30:00,23.8,15.0,29.73,West,270,2.1,2.5,69,0.00,,,0.00,WUHU216HW,2013-02-19 12:30:00,
2013-02-19 07:35:00,24.1,15.4,29.72,West,270,1.9,2.5,69,0.00,,,0.00,WUHU216HW,2013-02-19 12:35:00,
2013-02-19 07:40:00,24.5,15.8,29.72,West,270,2.0,2.2,69,0.00,,,0.00,WUHU216HW,2013-02-19 12:40:00,
2013-02-19 07:45:00,24.8,16.4,29.72,West,270,1.5,2.7,70,0.00,,,0.00,WUHU216HW,2013-02-19 12:45:00,
2013-02-19 07:50:00,25.2,16.7,29.72,West,270,3.6,3.6,70,0.00,,,0.00,WUHU216HW,2013-02-19 12:50:00,
2013-02-19 07:55:00,25.6,17.1,29.72,West,270,1.9,3.6,70,0.00,,,0.00,WUHU216HW,2013-02-19 12:55:00,
2013-02-19 08:00:00,26.3,17.8,29.72,West,270,2.0,3.6,70,0.00,,,0.00,WUHU216HW,2013-02-19 13:00:00,
2013-02-19 08:05:00,26.6,18.2,29.72,West,270,2.0,2.5,70,0.00,,,0.00,WUHU216HW,2013-02-19 13:05:00,
2013-02-19 08:10:00,27.0,18.5,29.72,West,270,2.5,3.8,70,0.00,,,0.00,WUHU216HW,2013-02-19 13:10:00,
2013-02-19 08:15:00,27.5,19.1,29.72,West,270,4.0,4.0,70,0.00,,,0.00,WUHU216HW,2013-02-19 13:15:00,
2013-02-19 08:20:00,27.9,19.4,29.72,West,270,2.0,4.5,70,0.00,,,0.00,WUHU216HW,2013-02-19 13:20:00,
2013-02-19 08:25:00,28.4,20.0,29.72,West,270,2.2,4.5,70,0.00,,,0.00,WUHU216HW,2013-02-19 13:25:00,
2013-02-19 08:30:00,28.8,20.4,29.72,West,270,3.6,4.5,70,0.00,,,0.00,WUHU216HW,2013-02-19 13:30:00,
2013-02-19 08:35:00,29.0,20.4,29.72,West,270,3.1,4.5,70,0.00,,,0.00,WUHU216HW,2013-02-19 13:35:00,
2013-02-19 08:40:00,29.5,21.0,29.71,West,270,2.7,4.0,70,0.00,,,0.00,WUHU216HW,2013-02-19 13:40:00,
2013-02-19 08:45:00,29.9,21.2,29.71,SSW,203,4.7,4.7,70,0.00,,,0.00,WUHU216HW,2013-02-19 13:45:00,
2013-02-19 08:50:00,30.2,21.6,29.71,South,189,3.7,5.6,70,0.00,,,0.00,WUHU216HW,2013-02-19 13:50:00,
2013-02-19 08:55:00,31.0,22.3,29.71,SSW,202,4.1,6.3,70,0.00,,,0.00,WUHU216HW,2013-02-19 13:55:00,
2013-02-19 09:00:00,31.3,22.7,29.71,SSW,211,5.0,6.3,70,0.00,,,0.00,WUHU216HW,2013-02-19 14:00:00,
2013-02-19 09:05:00,32.0,23.4,29.70,SSW,203,4.5,5.8,70,0.00,,,0.00,WUHU216HW,2013-02-19 14:05:00,
2013-02-19 09:10:00,32.6,23.9,29.70,SSW,203,4.7,5.8,70,0.00,,,0.00,WUHU216HW,2013-02-19 14:10:00,
2013-02-19 09:15:00,32.9,23.9,29.70,SW,225,4.0,5.4,69,0.00,,,0.00,WUHU216HW,2013-02-19 14:15:00,
2013-02-19 09:20:00,33.5,24.3,29.70,SW,225,6.5,6.9,69,0.00,,,0.00,WUHU216HW,2013-02-19 14:20:00,
2013-02-19 09:25:00,34.0,24.8,29.70,South,184,2.2,6.9,69,0.00,,,0.00,WUHU216HW,2013-02-19 14:25:00,
2013-02-19 09:30:00,34.6,25.7,29.69,South,190,1.7,6.5,70,0.00,,,0.00,WUHU216HW,2013-02-19 14:30:00,
2013-02-19 09:35:00,35.1,25.9,29.69,SW,221,2.7,5.4,69,0.00,,,0.00,WUHU216HW,2013-02-19 14:35:00,
2013-02-19 09:40:00,35.5,26.3,29.69,SSW,209,1.1,5.4,69,0.00,,,0.00,WUHU216HW,2013-02-19 14:40:00,
2013-02-19 09:45:00,35.8,26.3,29.69,SSW,203,1.1,2.7,68,0.00,,,0.00,WUHU216HW,2013-02-19 14:45:00,
2013-02-19 09:50:00,36.2,26.7,29.69,NNW,338,1.1,3.8,68,0.00,,,0.00,WUHU216HW,2013-02-19 14:50:00,
2013-02-19 09:55:00,36.5,27.0,29.69,SSW,194,3.4,7.4,68,0.00,,,0.00,WUHU216HW,2013-02-19 14:55:00,
2013-02-19 10:00:00,36.9,27.0,29.69,West,270,4.7,7.4,67,0.00,,,0.00,WUHU216HW,2013-02-19 15:00:00,
2013-02-19 10:05:00,37.3,27.3,29.69,SSW,206,1.4,6.3,67,0.00,,,0.00,WUHU216HW,2013-02-19 15:05:00,
2013-02-19 10:10:00,37.8,27.8,29.69,SSW,213,4.9,6.3,67,0.00,,,0.00,WUHU216HW,2013-02-19 15:10:00,
2013-02-19 10:15:00,38.3,27.9,29.68,South,184,3.6,6.3,66,0.00,,,0.00,WUHU216HW,2013-02-19 15:15:00,
2013-02-19 10:20:00,38.5,28.1,29.67,SSW,203,1.8,6.3,66,0.00,,,0.00,WUHU216HW,2013-02-19 15:20:00,
2013-02-19 10:25:00,38.7,27.9,29.67,East,90,3.1,5.4,65,0.00,,,0.00,WUHU216HW,2013-02-19 15:25:00,
2013-02-19 10:30:00,38.5,27.7,29.67,SW,225,3.4,6.5,65,0.00,,,0.00,WUHU216HW,2013-02-19 15:30:00,
2013-02-19 10:35:00,38.5,27.7,29.66,SSW,203,6.5,6.5,65,0.00,,,0.00,WUHU216HW,2013-02-19 15:35:00,
2013-02-19 10:40:00,38.5,27.7,29.67,NE,42,1.2,6.5,65,0.00,,,0.00,WUHU216HW,2013-02-19 15:40:00,
2013-02-19 10:45:00,38.9,28.5,29.66,SSW,203,5.1,6.3,66,0.00,,,0.00,WUHU216HW,2013-02-19 15:45:00,
2013-02-19 10:50:00,39.2,28.7,29.65,SSW,203,2.5,7.6,66,0.00,,,0.00,WUHU216HW,2013-02-19 15:50:00,
2013-02-19 10:55:00,39.2,28.7,29.65,SSW,201,1.4,7.6,66,0.00,,,0.00,WUHU216HW,2013-02-19 15:55:00,
2013-02-19 11:00:00,39.4,28.5,29.66,NNW,338,1.1,4.3,65,0.00,,,0.00,WUHU216HW,2013-02-19 16:00:00,
2013-02-19 11:05:00,39.6,28.7,29.65,South,181,1.0,3.1,65,0.00,,,0.00,WUHU216HW,2013-02-19 16:05:00,
2013-02-19 11:10:00,40.0,29.1,29.64,NNE,23,1.1,3.4,65,0.00,,,0.00,WUHU216HW,2013-02-19 16:10:00,
2013-02-19 11:15:00,40.1,29.6,29.64,East,97,1.5,3.4,66,0.00,,,0.00,WUHU216HW,2013-02-19 16:15:00,
2013-02-19 11:20:00,40.3,29.8,29.63,ENE,68,1.8,2.2,66,0.00,,,0.00,WUHU216HW,2013-02-19 16:20:00,
2013-02-19 11:25:00,40.7,30.2,29.63,SE,126,1.3,2.0,66,0.00,,,0.00,WUHU216HW,2013-02-19 16:25:00,
2013-02-19 11:30:00,40.9,30.0,29.62,East,92,1.4,2.0,65,0.00,,,0.00,WUHU216HW,2013-02-19 16:30:00,
2013-02-19 11:35:00,41.0,30.2,29.63,East,90,1.6,2.0,65,0.00,,,0.00,WUHU216HW,2013-02-19 16:35:00,
2013-02-19 11:40:00,41.2,30.3,29.62,SE,135,1.1,2.5,65,0.00,,,0.00,WUHU216HW,2013-02-19 16:40:00,
2013-02-19 11:45:00,41.4,30.5,29.62,SSW,203,2.2,3.1,65,0.00,,,0.00,WUHU216HW,2013-02-19 16:45:00,
2013-02-19 11:50:00,41.6,30.7,29.62,SSW,203,2.5,4.7,65,0.00,,,0.00,WUHU216HW,2013-02-19 16:50:00,
2013-02-19 11:55:00,41.6,30.7,29.62,SE,140,1.3,4.7,65,0.00,,,0.00,WUHU216HW,2013-02-19 16:55:00,
2013-02-19 12:00:00,41.4,30.5,29.62,SSW,195,4.7,7.6,65,0.00,,,0.00,WUHU216HW,2013-02-19 17:00:00,
2013-02-19 12:05:00,41.6,30.7,29.62,South,184,2.0,7.6,65,0.00,,,0.00,WUHU216HW,2013-02-19 17:05:00,
2013-02-19 12:10:00,42.1,31.6,29.61,ENE,68,1.3,4.3,66,0.00,,,0.00,WUHU216HW,2013-02-19 17:10:00,
2013-02-19 12:15:00,42.1,31.1,29.61,SSW,203,4.9,6.5,65,0.00,,,0.00,WUHU216HW,2013-02-19 17:15:00,
2013-02-19 12:20:00,42.1,31.1,29.60,NNE,24,1.8,6.5,65,0.00,,,0.00,WUHU216HW,2013-02-19 17:20:00,
2013-02-19 12:25:00,41.9,31.4,29.60,SSW,203,6.9,6.9,66,0.00,,,0.00,WUHU216HW,2013-02-19 17:25:00,
2013-02-19 12:30:00,42.1,31.6,29.60,SSE,158,1.8,6.9,66,0.00,,,0.00,WUHU216HW,2013-02-19 17:30:00,
2013-02-19 12:35:00,42.1,31.6,29.59,SE,136,2.8,8.5,66,0.00,,,0.00,WUHU216HW,2013-02-19 17:35:00,
2013-02-19 12:40:00,42.3,31.8,29.59,NW,312,2.6,8.5,66,0.00,,,0.00,WUHU216HW,2013-02-19 17:40:00,
2013-02-19 12:45:00,42.1,31.6,29.58,ESE,104,2.7,6.3,66,0.00,,,0.00,WUHU216HW,2013-02-19 17:45:00,
2013-02-19 12:50:00,42.1,31.6,29.57,SSE,150,2.6,9.2,66,0.00,,,0.00,WUHU216HW,2013-02-19 17:50:00,
2013-02-19 12:55:00,42.1,31.6,29.57,SE,135,3.8,9.2,66,0.00,,,0.00,WUHU216HW,2013-02-19 17:55:00,
2013-02-19 13:00:00,42.1,31.6,29.57,SSW,203,2.9,6.7,66,0.00,,,0.00,WUHU216HW,2013-02-19 18:00:00,
2013-02-19 13:05:00,42.1,31.6,29.57,SSW,203,2.2,5.4,66,0.00,,,0.00,WUHU216HW,2013-02-19 18:05:00,
2013-02-19 13:10:00,42.1,32.0,29.57,SSW,192,2.4,5.4,67,0.00,,,0.00,WUHU216HW,2013-02-19 18:10:00,
2013-02-19 13:15:00,42.1,32.0,29.56,SE,135,1.8,4.7,67,0.00,,,0.00,WUHU216HW,2013-02-19 18:15:00,
2013-02-19 13:20:00,42.1,32.0,29.56,SSE,158,1.6,2.9,67,0.00,,,0.00,WUHU216HW,2013-02-19 18:20:00,
2013-02-19 13:25:00,42.1,32.0,29.55,SSW,195,1.7,6.5,67,0.00,,,0.00,WUHU216HW,2013-02-19 18:25:00,
2013-02-19 13:30:00,42.1,32.0,29.55,SE,127,1.7,6.5,67,0.00,,,0.00,WUHU216HW,2013-02-19 18:30:00,
2013-02-19 13:35:00,42.1,32.3,29.55,SSE,150,2.9,5.6,68,0.00,,,0.00,WUHU216HW,2013-02-19 18:35:00,
2013-02-19 13:40:00,41.8,31.6,29.56,SE,135,3.4,4.9,67,0.00,,,0.00,WUHU216HW,2013-02-19 18:40:00,
2013-02-19 13:45:00,41.4,31.2,29.55,SSE,158,2.2,5.4,67,0.00,,,0.00,WUHU216HW,2013-02-19 18:45:00,
2013-02-19 13:50:00,41.4,31.7,29.55,SSW,200,3.4,5.4,68,0.00,,,0.00,WUHU216HW,2013-02-19 18:50:00,
2013-02-19 13:55:00,41.4,32.1,29.54,WSW,238,2.2,5.4,69,0.00,,,0.00,WUHU216HW,2013-02-19 18:55:00,
2013-02-19 14:00:00,41.4,32.4,29.54,ESE,106,3.5,4.9,70,0.00,,,0.00,WUHU216HW,2013-02-19 19:00:00,
2013-02-19 14:05:00,41.2,32.6,29.54,SW,218,2.6,4.9,71,0.00,,,0.00,WUHU216HW,2013-02-19 19:05:00,
2013-02-19 14:10:00,40.9,32.2,29.53,South,186,4.3,6.3,71,0.00,,,0.00,WUHU216HW,2013-02-19 19:10:00,
2013-02-19 14:15:00,40.7,32.3,29.53,SSW,203,9.2,10.3,72,0.00,,,0.00,WUHU216HW,2013-02-19 19:15:00,
2013-02-19 14:20:00,40.1,31.8,29.53,SSW,198,3.5,10.3,72,0.00,,,0.00,WUHU216HW,2013-02-19 19:20:00,
2013-02-19 14:25:00,40.0,32.3,29.53,East,90,4.0,9.4,74,0.00,,,0.00,WUHU216HW,2013-02-19 19:25:00,
2013-02-19 14:30:00,39.4,31.8,29.52,SSW,203,6.7,6.7,74,0.00,,,0.00,WUHU216HW,2013-02-19 19:30:00,
2013-02-19 14:35:00,39.2,32.3,29.52,SSW,203,3.5,6.7,76,0.00,,,0.00,WUHU216HW,2013-02-19 19:35:00,
2013-02-19 14:40:00,39.1,32.5,29.51,SSW,197,3.2,6.7,77,0.00,,,0.00,WUHU216HW,2013-02-19 19:40:00,
2013-02-19 14:45:00,39.1,32.5,29.51,SW,225,1.6,5.8,77,0.00,,,0.00,WUHU216HW,2013-02-19 19:45:00,
2013-02-19 14:50:00,38.9,32.3,29.52,SSW,204,4.6,7.6,77,0.00,,,0.00,WUHU216HW,2013-02-19 19:50:00,
2013-02-19 14:55:00,38.9,32.3,29.51,SSW,204,5.4,7.6,77,0.00,,,0.00,WUHU216HW,2013-02-19 19:55:00,
2013-02-19 15:00:00,38.9,32.6,29.51,SSW,197,1.4,6.3,78,0.00,,,0.00,WUHU216HW,2013-02-19 20:00:00,
2013-02-19 15:05:00,38.5,32.6,29.50,South,180,4.0,4.5,79,0.00,,,0.00,WUHU216HW,2013-02-19 20:05:00,
2013-02-19 15:10:00,38.5,32.6,29.50,SSW,196,3.7,5.8,79,0.00,,,0.00,WUHU216HW,2013-02-19 20:10:00,
2013-02-19 15:15:00,38.3,32.4,29.50,SSW,208,4.8,6.5,79,0.00,,,0.00,WUHU216HW,2013-02-19 20:15:00,
2013-02-19 15:20:00,38.3,32.8,29.49,SW,218,4.0,6.5,80,0.00,,,0.00,WUHU216HW,2013-02-19 20:20:00,
2013-02-19 15:25:00,38.2,32.6,29.49,SSE,158,3.1,6.3,80,0.00,,,0.00,WUHU216HW,2013-02-19 20:25:00,
2013-02-19 15:30:00,38.2,32.6,29.49,SSW,203,3.6,5.8,80,0.00,,,0.00,WUHU216HW,2013-02-19 20:30:00,
2013-02-19 15:35:00,38.2,32.6,29.48,SW,225,2.5,5.8,80,0.00,,,0.00,WUHU216HW,2013-02-19 20:35:00,
2013-02-19 15:40:00,38.2,32.6,29.48,SW,225,2.2,4.9,80,0.00,,,0.00,WUHU216HW,2013-02-19 20:40:00,
2013-02-19 15:45:00,38.2,32.6,29.48,ESE,113,0.9,4.3,80,0.00,,,0.00,WUHU216HW,2013-02-19 20:45:00,
2013-02-19 15:50:00,38.2,32.9,29.47,SSW,200,1.1,2.0,81,0.00,,,0.00,WUHU216HW,2013-02-19 20:50:00,
2013-02-19 15:55:00,38.2,33.1,29.47,South,190,0.6,1.8,82,0.00,,,0.00,WUHU216HW,2013-02-19 20:55:00,
2013-02-19 16:00:00,38.0,32.7,29.46,SSW,198,1.3,2.9,81,0.00,,,0.00,WUHU216HW,2013-02-19 21:00:00,
2013-02-19 16:05:00,38.0,32.9,29.46,SW,214,0.8,2.9,82,0.00,,,0.00,WUHU216HW,2013-02-19 21:05:00,
2013-02-19 16:10:00,38.0,32.9,29.45,SSW,197,1.7,2.5,82,0.00,,,0.00,WUHU216HW,2013-02-19 21:10:00,
2013-02-19 16:15:00,38.0,33.3,29.45,South,174,0.5,2.2,83,0.00,,,0.00,WUHU216HW,2013-02-19 21:15:00,
2013-02-19 16:20:00,38.0,33.3,29.44,SSE,153,1.0,1.8,83,0.00,,,0.00,WUHU216HW,2013-02-19 21:20:00,
2013-02-19 16:25:00,38.0,33.3,29.44,NE,41,0.4,1.8,83,0.00,,,0.00,WUHU216HW,2013-02-19 21:25:00,
2013-02-19 16:30:00,37.8,33.1,29.43,South,183,0.6,0.9,83,0.00,,,0.00,WUHU216HW,2013-02-19 21:30:00,
2013-02-19 16:35:00,37.8,33.1,29.43,WNW,293,0.4,0.9,83,0.00,,,0.00,WUHU216HW,2013-02-19 21:35:00,
2013-02-19 16:40:00,37.8,33.4,29.43,ESE,123,0.4,0.9,84,0.00,,,0.00,WUHU216HW,2013-02-19 21:40:00,
2013-02-19 16:45:00,37.8,33.4,29.42,ESE,113,0.7,1.1,84,0.00,,,0.00,WUHU216HW,2013-02-19 21:45:00,
2013-02-19 16:50:00,37.8,33.4,29.41,South,169,0.3,1.1,84,0.00,,,0.00,WUHU216HW,2013-02-19 21:50:00,
2013-02-19 16:55:00,37.8,33.4,29.41,SSW,203,0.7,1.1,84,0.00,,,0.00,WUHU216HW,2013-02-19 21:55:00,
2013-02-19 17:00:00,37.8,33.4,29.41,SSE,158,0.2,1.1,84,0.00,,,0.00,WUHU216HW,2013-02-19 22:00:00,
2013-02-19 17:05:00,37.8,33.4,29.41,SW,225,0.9,0.9,84,0.00,,,0.00,WUHU216HW,2013-02-19 22:05:00,
2013-02-19 17:10:00,37.8,33.7,29.41,SSW,203,1.1,1.1,85,0.00,,,0.00,WUHU216HW,2013-02-19 22:10:00,
2013-02-19 17:15:00,37.8,33.7,29.41,SW,225,0.4,1.1,85,0.00,,,0.00,WUHU216HW,2013-02-19 22:15:00,
2013-02-19 17:20:00,37.8,33.7,29.40,SSW,194,0.9,1.6,85,0.00,,,0.00,WUHU216HW,2013-02-19 22:20:00,
2013-02-19 17:25:00,37.8,33.7,29.40,SSW,203,1.1,1.6,85,0.00,,,0.00,WUHU216HW,2013-02-19 22:25:00,
2013-02-19 17:30:00,37.8,33.7,29.40,SSW,203,2.2,2.7,85,0.00,,,0.00,WUHU216HW,2013-02-19 22:30:00,
2013-02-19 17:35:00,37.8,33.7,29.40,SSW,203,2.5,2.7,85,0.00,,,0.00,WUHU216HW,2013-02-19 22:35:00,
2013-02-19 17:40:00,37.8,33.7,29.40,SSW,203,1.1,2.7,85,0.00,,,0.00,WUHU216HW,2013-02-19 22:40:00,
2013-02-19 17:45:00,37.8,33.7,29.40,SSW,203,1.6,2.5,85,0.00,,,0.00,WUHU216HW,2013-02-19 22:45:00,
2013-02-19 17:50:00,37.8,33.7,29.39,SW,225,2.0,3.4,85,0.00,,,0.00,WUHU216HW,2013-02-19 22:50:00,
2013-02-19 17:55:00,37.8,33.7,29.39,SSW,203,1.8,3.4,85,0.00,,,0.00,WUHU216HW,2013-02-19 22:55:00,
2013-02-19 18:00:00,37.8,33.7,29.39,SSW,203,0.9,4.0,85,0.00,,,0.00,WUHU216HW,2013-02-19 23:00:00,
2013-02-19 18:05:00,37.8,33.7,29.39,SSW,203,1.6,4.0,85,0.00,,,0.00,WUHU216HW,2013-02-19 23:05:00,
2013-02-19 18:10:00,37.8,33.9,29.39,SSW,203,3.6,4.0,86,0.00,,,0.00,WUHU216HW,2013-02-19 23:10:00,
2013-02-19 18:15:00,37.8,33.9,29.39,SW,225,1.1,4.0,86,0.00,,,0.00,WUHU216HW,2013-02-19 23:15:00,
2013-02-19 18:20:00,37.8,33.9,29.39,SSW,203,2.5,3.4,86,0.00,,,0.00,WUHU216HW,2013-02-19 23:20:00,
2013-02-19 18:25:00,37.8,33.9,29.39,SSW,203,2.0,2.9,86,0.00,,,0.00,WUHU216HW,2013-02-19 23:25:00,
2013-02-19 18:30:00,37.8,33.9,29.38,SSW,203,1.8,2.5,86,0.00,,,0.00,WUHU216HW,2013-02-19 23:30:00,
2013-02-19 18:35:00,37.8,33.9,29.38,SW,219,2.3,3.4,86,0.00,,,0.00,WUHU216HW,2013-02-19 23:35:00,
2013-02-19 18:40:00,37.8,33.9,29.38,SW,225,1.1,3.4,86,0.00,,,0.00,WUHU216HW,2013-02-19 23:40:00,
2013-02-19 18:45:00,37.8,33.9,29.38,WSW,248,1.1,1.8,86,0.00,,,0.00,WUHU216HW,2013-02-19 23:45:00,
2013-02-19 18:50:00,37.8,33.9,29.37,SW,225,1.3,1.6,86,0.00,,,0.00,WUHU216HW,2013-02-19 23:50:00,
2013-02-19 18:55:00,37.8,33.9,29.37,SW,225,0.4,1.3,86,0.00,,,0.00,WUHU216HW,2013-02-19 23:55:00,
2013-02-19 19:00:00,37.8,34.2,29.37,SSW,203,2.0,2.2,87,0.00,,,0.00,WUHU216HW,2013-02-20 00:00:00,
2013-02-19 19:05:00,37.8,34.2,29.37,SSW,203,1.8,2.2,87,0.00,,,0.00,WUHU216HW,2013-02-20 00:05:00,
2013-02-19 19:10:00,37.8,34.2,29.37,SSW,210,1.5,2.2,87,0.00,,,0.00,WUHU216HW,2013-02-20 00:10:00,
2013-02-19 19:15:00,37.8,34.2,29.36,SW,225,1.1,1.8,87,0.00,,,0.00,WUHU216HW,2013-02-20 00:15:00,
2013-02-19 19:20:00,37.8,34.2,29.36,SW,225,2.2,2.2,87,0.00,,,0.00,WUHU216HW,2013-02-20 00:20:00,
2013-02-19 19:25:00,37.8,34.2,29.36,SW,225,0.9,2.5,87,0.00,,,0.00,WUHU216HW,2013-02-20 00:25:00,
2013-02-19 19:30:00,37.8,34.2,29.36,SW,225,0.9,2.5,87,0.00,,,0.00,WUHU216HW,2013-02-20 00:30:00,
2013-02-19 19:35:00,37.8,34.6,29.36,SW,225,1.2,3.4,88,0.00,,,0.00,WUHU216HW,2013-02-20 00:35:00,
2013-02-19 19:40:00,37.8,34.6,29.36,SW,228,1.3,3.4,88,0.00,,,0.00,WUHU216HW,2013-02-20 00:40:00,
2013-02-19 19:45:00,37.8,34.6,29.35,SW,225,2.5,2.9,88,0.00,,,0.00,WUHU216HW,2013-02-20 00:45:00,
2013-02-19 19:50:00,37.8,34.6,29.34,SW,225,0.9,2.5,88,0.00,,,0.00,WUHU216HW,2013-02-20 00:50:00,
2013-02-19 19:55:00,37.8,34.6,29.34,SW,226,1.4,2.5,88,0.00,,,0.00,WUHU216HW,2013-02-20 00:55:00,
2013-02-19 20:00:00,37.8,34.6,29.34,SW,225,0.8,2.5,88,0.00,,,0.00,WUHU216HW,2013-02-20 01:00:00,
2013-02-19 20:05:00,37.8,34.6,29.34,SW,225,1.6,1.8,88,0.00,,,0.00,WUHU216HW,2013-02-20 01:05:00,
2013-02-19 20:10:00,37.8,34.6,29.34,SW,225,0.0,1.8,88,0.00,,,0.00,WUHU216HW,2013-02-20 01:10:00,
2013-02-19 20:15:00,37.8,34.6,29.33,SW,232,0.5,1.1,88,0.00,,,0.00,WUHU216HW,2013-02-20 01:15:00,
2013-02-19 20:20:00,37.8,34.6,29.33,SW,231,1.1,2.5,88,0.00,,,0.00,WUHU216HW,2013-02-20 01:20:00,
2013-02-19 20:25:00,37.8,34.6,29.32,WSW,241,0.7,2.5,88,0.00,,,0.00,WUHU216HW,2013-02-20 01:25:00,
2013-02-19 20:30:00,37.8,34.8,29.33,WSW,255,1.4,4.0,89,0.00,,,0.00,WUHU216HW,2013-02-20 01:30:00,
2013-02-19 20:35:00,37.8,34.8,29.32,North,0,1.1,4.0,89,0.00,,,0.00,WUHU216HW,2013-02-20 01:35:00,
2013-02-19 20:40:00,37.8,34.8,29.32,SW,225,1.1,1.6,89,0.00,,,0.00,WUHU216HW,2013-02-20 01:40:00,
2013-02-19 20:45:00,37.8,35.1,29.33,WSW,239,1.2,2.7,90,0.00,,,0.00,WUHU216HW,2013-02-20 01:45:00,
2013-02-19 20:50:00,38.0,35.0,29.33,WSW,248,1.6,2.7,89,0.00,,,0.00,WUHU216HW,2013-02-20 01:50:00,
2013-02-19 20:55:00,37.8,34.8,29.33,WSW,255,1.0,2.5,89,0.00,,,0.00,WUHU216HW,2013-02-20 01:55:00,
2013-02-19 21:00:00,38.0,35.3,29.33,SW,229,0.8,2.2,90,0.00,,,0.00,WUHU216HW,2013-02-20 02:00:00,
2013-02-19 21:05:00,38.0,35.3,29.34,WSW,240,1.5,2.2,90,0.00,,,0.00,WUHU216HW,2013-02-20 02:05:00,
2013-02-19 21:10:00,37.8,35.1,29.33,West,271,1.2,2.5,90,0.00,,,0.00,WUHU216HW,2013-02-20 02:10:00,
2013-02-19 21:15:00,38.0,35.0,29.34,WSW,248,0.9,2.5,89,0.00,,,0.00,WUHU216HW,2013-02-20 02:15:00,
2013-02-19 21:20:00,37.8,35.1,29.34,NW,315,2.0,2.7,90,0.00,,,0.00,WUHU216HW,2013-02-20 02:20:00,
2013-02-19 21:25:00,37.8,35.1,29.33,WSW,248,2.0,2.7,90,0.00,,,0.00,WUHU216HW,2013-02-20 02:25:00,
2013-02-19 21:30:00,37.8,35.1,29.33,West,267,1.1,3.4,90,0.00,,,0.00,WUHU216HW,2013-02-20 02:30:00,
2013-02-19 21:35:00,37.8,35.1,29.33,North,0,0.9,3.4,90,0.00,,,0.00,WUHU216HW,2013-02-20 02:35:00,
2013-02-19 21:40:00,37.8,35.1,29.32,WSW,239,1.9,3.4,90,0.00,,,0.00,WUHU216HW,2013-02-20 02:40:00,
2013-02-19 21:45:00,37.6,34.9,29.32,SW,225,2.5,4.3,90,0.00,,,0.00,WUHU216HW,2013-02-20 02:45:00,
2013-02-19 21:50:00,37.4,34.7,29.32,ESE,113,0.9,4.3,90,0.00,,,0.00,WUHU216HW,2013-02-20 02:50:00,